sensor_id;sensor_type;location;lat;lon;timestamp;P1;durP1;ratioP1;P2;durP2;ratioP2
11396;SDS011;5754;43.726;7.416;2024-01-11T00:02:24;87.80;;;84.10;;
11396;SDS011;5754;43.726;7.416;2024-01-11T00:04:59;90.30;;;86.50;;
11396;SDS011;5754;43.726;7.416;2024-01-11T00:07:35;88.40;;;84.70;;
11396;SDS011;5754;43.726;7.416;2024-01-11T00:10:10;91.70;;;87.90;;
11396;SDS011;5754;43.726;7.416;2024-01-11T00:12:46;87.33;;;83.60;;
11396;SDS011;5754;43.726;7.416;2024-01-11T00:15:21;88.83;;;85.03;;
11396;SDS011;5754;43.726;7.416;2024-01-11T00:17:56;88.43;;;84.63;;
11396;SDS011;5754;43.726;7.416;2024-01-11T00:20:32;88.20;;;84.40;;
11396;SDS011;5754;43.726;7.416;2024-01-11T00:23:07;88.43;;;84.73;;
11396;SDS011;5754;43.726;7.416;2024-01-11T00:25:41;86.83;;;83.07;;
11396;SDS011;5754;43.726;7.416;2024-01-11T00:28:17;89.83;;;86.03;;
11396;SDS011;5754;43.726;7.416;2024-01-11T00:30:52;90.17;;;86.27;;
11396;SDS011;5754;43.726;7.416;2024-01-11T00:33:34;89.00;;;85.20;;
11396;SDS011;5754;43.726;7.416;2024-01-11T00:36:09;89.90;;;86.10;;
11396;SDS011;5754;43.726;7.416;2024-01-11T00:38:45;90.90;;;87.10;;
11396;SDS011;5754;43.726;7.416;2024-01-11T00:41:21;86.10;;;82.50;;
11396;SDS011;5754;43.726;7.416;2024-01-11T00:43:56;90.67;;;86.87;;
11396;SDS011;5754;43.726;7.416;2024-01-11T00:46:32;87.67;;;83.97;;
11396;SDS011;5754;43.726;7.416;2024-01-11T00:49:07;89.57;;;85.83;;
11396;SDS011;5754;43.726;7.416;2024-01-11T00:51:44;88.90;;;85.20;;
11396;SDS011;5754;43.726;7.416;2024-01-11T00:54:18;89.53;;;85.77;;
11396;SDS011;5754;43.726;7.416;2024-01-11T00:56:54;89.53;;;85.83;;
11396;SDS011;5754;43.726;7.416;2024-01-11T00:59:30;90.20;;;86.40;;
11396;SDS011;5754;43.726;7.416;2024-01-11T01:02:05;90.43;;;86.63;;
11396;SDS011;5754;43.726;7.416;2024-01-11T01:04:44;89.60;;;85.70;;
11396;SDS011;5754;43.726;7.416;2024-01-11T01:07:19;90.03;;;86.23;;
11396;SDS011;5754;43.726;7.416;2024-01-11T01:09:56;88.90;;;85.10;;
11396;SDS011;5754;43.726;7.416;2024-01-11T01:12:30;88.43;;;84.73;;
11396;SDS011;5754;43.726;7.416;2024-01-11T01:15:06;90.60;;;86.77;;
11396;SDS011;5754;43.726;7.416;2024-01-11T01:17:42;90.00;;;86.10;;
11396;SDS011;5754;43.726;7.416;2024-01-11T01:20:18;90.00;;;86.23;;
11396;SDS011;5754;43.726;7.416;2024-01-11T01:22:52;88.37;;;84.67;;
11396;SDS011;5754;43.726;7.416;2024-01-11T01:25:28;84.20;;;80.40;;
11396;SDS011;5754;43.726;7.416;2024-01-11T01:28:03;84.53;;;80.83;;
11396;SDS011;5754;43.726;7.416;2024-01-11T01:30:39;85.43;;;81.83;;
11396;SDS011;5754;43.726;7.416;2024-01-11T01:33:15;87.37;;;83.67;;
11396;SDS011;5754;43.726;7.416;2024-01-11T01:35:51;86.43;;;82.73;;
11396;SDS011;5754;43.726;7.416;2024-01-11T01:38:25;87.47;;;83.73;;
11396;SDS011;5754;43.726;7.416;2024-01-11T01:41:04;86.07;;;82.40;;
11396;SDS011;5754;43.726;7.416;2024-01-11T01:43:39;85.53;;;81.93;;
11396;SDS011;5754;43.726;7.416;2024-01-11T01:46:15;87.00;;;83.30;;
11396;SDS011;5754;43.726;7.416;2024-01-11T01:48:55;85.13;;;81.53;;
11396;SDS011;5754;43.726;7.416;2024-01-11T01:51:32;87.67;;;83.97;;
11396;SDS011;5754;43.726;7.416;2024-01-11T01:54:07;86.03;;;82.43;;
11396;SDS011;5754;43.726;7.416;2024-01-11T01:56:42;86.77;;;83.00;;
11396;SDS011;5754;43.726;7.416;2024-01-11T01:59:17;88.33;;;84.67;;
11396;SDS011;5754;43.726;7.416;2024-01-11T02:01:52;88.63;;;84.93;;
11396;SDS011;5754;43.726;7.416;2024-01-11T02:04:28;87.30;;;83.60;;
11396;SDS011;5754;43.726;7.416;2024-01-11T02:07:05;87.37;;;83.67;;
11396;SDS011;5754;43.726;7.416;2024-01-11T02:09:41;87.43;;;83.70;;
11396;SDS011;5754;43.726;7.416;2024-01-11T02:12:17;88.30;;;84.50;;
11396;SDS011;5754;43.726;7.416;2024-01-11T02:14:53;84.63;;;81.03;;
11396;SDS011;5754;43.726;7.416;2024-01-11T02:17:28;85.60;;;82.00;;
11396;SDS011;5754;43.726;7.416;2024-01-11T02:20:03;86.90;;;83.07;;
11396;SDS011;5754;43.726;7.416;2024-01-11T02:22:38;88.83;;;85.13;;
11396;SDS011;5754;43.726;7.416;2024-01-11T02:25:16;88.20;;;84.33;;
11396;SDS011;5754;43.726;7.416;2024-01-11T02:27:50;86.27;;;82.63;;
11396;SDS011;5754;43.726;7.416;2024-01-11T02:30:25;88.73;;;85.00;;
11396;SDS011;5754;43.726;7.416;2024-01-11T02:33:00;88.30;;;84.47;;
11396;SDS011;5754;43.726;7.416;2024-01-11T02:35:36;88.40;;;84.40;;
11396;SDS011;5754;43.726;7.416;2024-01-11T02:38:14;88.23;;;84.43;;
11396;SDS011;5754;43.726;7.416;2024-01-11T02:40:49;88.87;;;84.83;;
11396;SDS011;5754;43.726;7.416;2024-01-11T02:43:25;86.17;;;82.47;;
11396;SDS011;5754;43.726;7.416;2024-01-11T02:45:59;88.37;;;84.47;;
11396;SDS011;5754;43.726;7.416;2024-01-11T02:48:35;87.10;;;83.40;;
11396;SDS011;5754;43.726;7.416;2024-01-11T02:51:10;85.93;;;82.23;;
11396;SDS011;5754;43.726;7.416;2024-01-11T02:53:45;87.10;;;83.50;;
11396;SDS011;5754;43.726;7.416;2024-01-11T02:56:20;87.20;;;83.43;;
11396;SDS011;5754;43.726;7.416;2024-01-11T02:58:54;86.27;;;82.67;;
11396;SDS011;5754;43.726;7.416;2024-01-11T03:01:29;88.00;;;84.10;;
11396;SDS011;5754;43.726;7.416;2024-01-11T03:04:07;86.40;;;82.70;;
11396;SDS011;5754;43.726;7.416;2024-01-11T03:06:41;84.87;;;81.27;;
11396;SDS011;5754;43.726;7.416;2024-01-11T03:09:16;87.83;;;83.93;;
11396;SDS011;5754;43.726;7.416;2024-01-11T03:11:52;87.83;;;84.03;;
11396;SDS011;5754;43.726;7.416;2024-01-11T03:14:28;87.13;;;83.43;;
11396;SDS011;5754;43.726;7.416;2024-01-11T03:17:02;88.17;;;84.47;;
11396;SDS011;5754;43.726;7.416;2024-01-11T03:19:42;86.37;;;82.73;;
11396;SDS011;5754;43.726;7.416;2024-01-11T03:22:17;89.10;;;85.40;;
11396;SDS011;5754;43.726;7.416;2024-01-11T03:24:52;87.33;;;83.63;;
11396;SDS011;5754;43.726;7.416;2024-01-11T03:27:28;89.73;;;85.93;;
11396;SDS011;5754;43.726;7.416;2024-01-11T03:30:04;86.43;;;82.47;;
11396;SDS011;5754;43.726;7.416;2024-01-11T03:32:41;90.43;;;86.67;;
11396;SDS011;5754;43.726;7.416;2024-01-11T03:35:17;88.63;;;84.93;;
11396;SDS011;5754;43.726;7.416;2024-01-11T03:37:52;87.83;;;84.13;;
11396;SDS011;5754;43.726;7.416;2024-01-11T03:40:27;87.37;;;83.67;;
11396;SDS011;5754;43.726;7.416;2024-01-11T03:43:02;87.93;;;84.23;;
11396;SDS011;5754;43.726;7.416;2024-01-11T03:45:38;87.13;;;83.37;;
11396;SDS011;5754;43.726;7.416;2024-01-11T03:48:14;91.67;;;87.77;;
11396;SDS011;5754;43.726;7.416;2024-01-11T03:50:49;90.00;;;86.10;;
11396;SDS011;5754;43.726;7.416;2024-01-11T03:53:25;86.20;;;82.53;;
11396;SDS011;5754;43.726;7.416;2024-01-11T03:58:42;87.07;;;83.47;;
11396;SDS011;5754;43.726;7.416;2024-01-11T04:01:18;87.47;;;83.77;;
11396;SDS011;5754;43.726;7.416;2024-01-11T04:03:56;89.47;;;85.77;;
11396;SDS011;5754;43.726;7.416;2024-01-11T04:06:31;88.73;;;84.93;;
11396;SDS011;5754;43.726;7.416;2024-01-11T04:09:06;86.20;;;82.50;;
11396;SDS011;5754;43.726;7.416;2024-01-11T04:11:42;85.53;;;82.03;;
11396;SDS011;5754;43.726;7.416;2024-01-11T04:14:16;88.37;;;84.73;;
11396;SDS011;5754;43.726;7.416;2024-01-11T04:16:52;88.57;;;84.87;;
11396;SDS011;5754;43.726;7.416;2024-01-11T04:19:26;88.07;;;84.33;;
11396;SDS011;5754;43.726;7.416;2024-01-11T04:22:02;85.97;;;82.40;;
11396;SDS011;5754;43.726;7.416;2024-01-11T04:24:40;86.93;;;83.30;;
11396;SDS011;5754;43.726;7.416;2024-01-11T04:27:15;88.43;;;84.73;;
11396;SDS011;5754;43.726;7.416;2024-01-11T04:29:51;88.00;;;84.10;;
11396;SDS011;5754;43.726;7.416;2024-01-11T04:32:29;87.80;;;84.10;;
11396;SDS011;5754;43.726;7.416;2024-01-11T04:35:04;87.47;;;83.77;;
11396;SDS011;5754;43.726;7.416;2024-01-11T04:37:40;89.57;;;85.87;;
11396;SDS011;5754;43.726;7.416;2024-01-11T04:40:15;90.23;;;86.53;;
11396;SDS011;5754;43.726;7.416;2024-01-11T04:42:49;87.57;;;83.97;;
11396;SDS011;5754;43.726;7.416;2024-01-11T04:45:24;90.63;;;86.90;;
11396;SDS011;5754;43.726;7.416;2024-01-11T04:47:59;89.03;;;85.33;;
11396;SDS011;5754;43.726;7.416;2024-01-11T04:50:34;88.33;;;84.60;;
11396;SDS011;5754;43.726;7.416;2024-01-11T04:53:08;87.47;;;83.60;;
11396;SDS011;5754;43.726;7.416;2024-01-11T04:55:43;90.50;;;86.77;;
11396;SDS011;5754;43.726;7.416;2024-01-11T04:58:18;90.00;;;86.20;;
11396;SDS011;5754;43.726;7.416;2024-01-11T05:00:53;90.50;;;86.70;;
11396;SDS011;5754;43.726;7.416;2024-01-11T05:03:29;89.77;;;86.03;;
11396;SDS011;5754;43.726;7.416;2024-01-11T05:06:05;89.63;;;85.93;;
11396;SDS011;5754;43.726;7.416;2024-01-11T05:08:41;89.70;;;85.97;;
11396;SDS011;5754;43.726;7.416;2024-01-11T05:11:20;87.67;;;83.80;;
11396;SDS011;5754;43.726;7.416;2024-01-11T05:13:56;88.23;;;84.57;;
11396;SDS011;5754;43.726;7.416;2024-01-11T05:16:32;90.83;;;87.13;;
11396;SDS011;5754;43.726;7.416;2024-01-11T05:19:09;91.27;;;87.43;;
11396;SDS011;5754;43.726;7.416;2024-01-11T05:21:44;86.93;;;83.10;;
11396;SDS011;5754;43.726;7.416;2024-01-11T05:24:19;90.37;;;86.53;;
11396;SDS011;5754;43.726;7.416;2024-01-11T05:26:55;90.07;;;86.27;;
11396;SDS011;5754;43.726;7.416;2024-01-11T05:29:30;88.37;;;84.77;;
11396;SDS011;5754;43.726;7.416;2024-01-11T05:32:07;87.17;;;83.57;;
11396;SDS011;5754;43.726;7.416;2024-01-11T05:34:42;88.70;;;85.00;;
11396;SDS011;5754;43.726;7.416;2024-01-11T05:37:18;90.00;;;86.30;;
11396;SDS011;5754;43.726;7.416;2024-01-11T05:39:54;89.23;;;85.40;;
11396;SDS011;5754;43.726;7.416;2024-01-11T05:42:33;86.23;;;82.57;;
11396;SDS011;5754;43.726;7.416;2024-01-11T05:45:09;87.27;;;83.67;;
11396;SDS011;5754;43.726;7.416;2024-01-11T05:47:50;85.30;;;81.00;;
11396;SDS011;5754;43.726;7.416;2024-01-11T05:50:25;83.33;;;79.63;;
11396;SDS011;5754;43.726;7.416;2024-01-11T05:52:59;83.83;;;80.27;;
11396;SDS011;5754;43.726;7.416;2024-01-11T05:55:34;85.90;;;82.17;;
11396;SDS011;5754;43.726;7.416;2024-01-11T05:58:08;83.70;;;79.60;;
11396;SDS011;5754;43.726;7.416;2024-01-11T06:00:43;83.70;;;80.20;;
11396;SDS011;5754;43.726;7.416;2024-01-11T06:03:19;84.83;;;81.30;;
11396;SDS011;5754;43.726;7.416;2024-01-11T06:05:54;83.77;;;80.17;;
11396;SDS011;5754;43.726;7.416;2024-01-11T06:08:29;85.90;;;82.10;;
11396;SDS011;5754;43.726;7.416;2024-01-11T06:11:07;84.03;;;80.40;;
11396;SDS011;5754;43.726;7.416;2024-01-11T06:13:42;83.77;;;80.23;;
11396;SDS011;5754;43.726;7.416;2024-01-11T06:16:20;85.17;;;81.57;;
11396;SDS011;5754;43.726;7.416;2024-01-11T06:18:55;84.80;;;81.20;;
11396;SDS011;5754;43.726;7.416;2024-01-11T06:21:29;86.40;;;82.70;;
11396;SDS011;5754;43.726;7.416;2024-01-11T06:24:04;85.77;;;82.07;;
11396;SDS011;5754;43.726;7.416;2024-01-11T06:26:40;83.87;;;80.37;;
11396;SDS011;5754;43.726;7.416;2024-01-11T06:29:14;86.50;;;82.90;;
11396;SDS011;5754;43.726;7.416;2024-01-11T06:31:49;85.30;;;81.60;;
11396;SDS011;5754;43.726;7.416;2024-01-11T06:34:25;83.03;;;79.47;;
11396;SDS011;5754;43.726;7.416;2024-01-11T06:37:01;82.70;;;79.20;;
11396;SDS011;5754;43.726;7.416;2024-01-11T06:39:37;83.13;;;79.50;;
11396;SDS011;5754;43.726;7.416;2024-01-11T06:42:12;84.13;;;80.63;;
11396;SDS011;5754;43.726;7.416;2024-01-11T06:44:48;87.43;;;83.57;;
11396;SDS011;5754;43.726;7.416;2024-01-11T06:47:26;83.90;;;80.40;;
11396;SDS011;5754;43.726;7.416;2024-01-11T06:50:01;83.33;;;79.73;;
11396;SDS011;5754;43.726;7.416;2024-01-11T06:52:37;86.87;;;83.10;;
11396;SDS011;5754;43.726;7.416;2024-01-11T06:55:13;83.60;;;80.10;;
11396;SDS011;5754;43.726;7.416;2024-01-11T06:57:49;86.17;;;82.27;;
11396;SDS011;5754;43.726;7.416;2024-01-11T07:00:26;84.77;;;81.27;;
11396;SDS011;5754;43.726;7.416;2024-01-11T07:03:01;83.10;;;79.60;;
11396;SDS011;5754;43.726;7.416;2024-01-11T07:05:36;82.87;;;79.40;;
11396;SDS011;5754;43.726;7.416;2024-01-11T07:08:16;85.33;;;81.73;;
11396;SDS011;5754;43.726;7.416;2024-01-11T07:10:51;84.60;;;80.90;;
11396;SDS011;5754;43.726;7.416;2024-01-11T07:13:27;86.60;;;82.90;;
11396;SDS011;5754;43.726;7.416;2024-01-11T07:16:03;85.40;;;81.80;;
11396;SDS011;5754;43.726;7.416;2024-01-11T07:18:38;84.40;;;80.80;;
11396;SDS011;5754;43.726;7.416;2024-01-11T07:21:19;83.47;;;79.80;;
11396;SDS011;5754;43.726;7.416;2024-01-11T07:23:57;83.87;;;80.37;;
11396;SDS011;5754;43.726;7.416;2024-01-11T07:26:32;84.00;;;80.50;;
11396;SDS011;5754;43.726;7.416;2024-01-11T07:29:12;83.37;;;79.77;;
11396;SDS011;5754;43.726;7.416;2024-01-11T07:31:46;85.23;;;81.53;;
11396;SDS011;5754;43.726;7.416;2024-01-11T07:34:21;81.67;;;78.17;;
11396;SDS011;5754;43.726;7.416;2024-01-11T07:36:56;84.63;;;81.13;;
11396;SDS011;5754;43.726;7.416;2024-01-11T07:39:31;83.50;;;79.97;;
11396;SDS011;5754;43.726;7.416;2024-01-11T07:42:06;87.07;;;83.47;;
11396;SDS011;5754;43.726;7.416;2024-01-11T07:44:41;84.70;;;81.20;;
11396;SDS011;5754;43.726;7.416;2024-01-11T07:47:16;84.33;;;80.83;;
11396;SDS011;5754;43.726;7.416;2024-01-11T07:49:52;83.70;;;80.20;;
11396;SDS011;5754;43.726;7.416;2024-01-11T07:52:27;83.33;;;79.83;;
11396;SDS011;5754;43.726;7.416;2024-01-11T07:55:02;84.03;;;80.53;;
11396;SDS011;5754;43.726;7.416;2024-01-11T07:57:41;83.27;;;79.77;;
11396;SDS011;5754;43.726;7.416;2024-01-11T08:00:17;86.27;;;82.47;;
11396;SDS011;5754;43.726;7.416;2024-01-11T08:02:52;83.10;;;79.50;;
11396;SDS011;5754;43.726;7.416;2024-01-11T08:05:28;84.80;;;81.20;;
11396;SDS011;5754;43.726;7.416;2024-01-11T08:08:03;83.50;;;80.00;;
11396;SDS011;5754;43.726;7.416;2024-01-11T08:10:39;89.77;;;85.77;;
11396;SDS011;5754;43.726;7.416;2024-01-11T08:13:13;84.97;;;81.43;;
11396;SDS011;5754;43.726;7.416;2024-01-11T08:15:49;84.87;;;81.37;;
11396;SDS011;5754;43.726;7.416;2024-01-11T08:18:23;88.67;;;84.97;;
11396;SDS011;5754;43.726;7.416;2024-01-11T08:20:58;86.30;;;82.70;;
11396;SDS011;5754;43.726;7.416;2024-01-11T08:23:32;81.93;;;78.33;;
11396;SDS011;5754;43.726;7.416;2024-01-11T08:26:07;84.30;;;80.90;;
11396;SDS011;5754;43.726;7.416;2024-01-11T08:28:42;81.67;;;78.00;;
11396;SDS011;5754;43.726;7.416;2024-01-11T08:31:17;84.47;;;80.97;;
11396;SDS011;5754;43.726;7.416;2024-01-11T08:33:54;82.20;;;78.77;;
11396;SDS011;5754;43.726;7.416;2024-01-11T08:36:32;83.00;;;79.40;;
11396;SDS011;5754;43.726;7.416;2024-01-11T08:39:12;81.83;;;78.43;;
11396;SDS011;5754;43.726;7.416;2024-01-11T08:41:49;82.37;;;78.87;;
11396;SDS011;5754;43.726;7.416;2024-01-11T08:44:24;81.40;;;77.87;;
11396;SDS011;5754;43.726;7.416;2024-01-11T08:47:00;82.70;;;79.03;;
11396;SDS011;5754;43.726;7.416;2024-01-11T08:49:37;83.33;;;79.70;;
11396;SDS011;5754;43.726;7.416;2024-01-11T08:52:13;85.93;;;81.93;;
11396;SDS011;5754;43.726;7.416;2024-01-11T08:54:48;82.80;;;79.40;;
11396;SDS011;5754;43.726;7.416;2024-01-11T08:57:23;81.47;;;77.97;;
11396;SDS011;5754;43.726;7.416;2024-01-11T09:00:02;84.60;;;81.10;;
11396;SDS011;5754;43.726;7.416;2024-01-11T09:02:37;81.27;;;77.77;;
11396;SDS011;5754;43.726;7.416;2024-01-11T09:05:13;85.40;;;81.80;;
11396;SDS011;5754;43.726;7.416;2024-01-11T09:07:48;84.63;;;80.93;;
11396;SDS011;5754;43.726;7.416;2024-01-11T09:10:24;85.50;;;81.90;;
11396;SDS011;5754;43.726;7.416;2024-01-11T09:12:59;83.90;;;80.03;;
11396;SDS011;5754;43.726;7.416;2024-01-11T09:15:34;84.33;;;80.73;;
11396;SDS011;5754;43.726;7.416;2024-01-11T09:18:09;83.30;;;79.90;;
11396;SDS011;5754;43.726;7.416;2024-01-11T09:20:44;85.87;;;82.33;;
11396;SDS011;5754;43.726;7.416;2024-01-11T09:23:19;85.10;;;81.40;;
11396;SDS011;5754;43.726;7.416;2024-01-11T09:25:55;85.63;;;82.03;;
11396;SDS011;5754;43.726;7.416;2024-01-11T09:28:29;85.33;;;81.73;;
11396;SDS011;5754;43.726;7.416;2024-01-11T09:31:04;87.77;;;83.97;;
11396;SDS011;5754;43.726;7.416;2024-01-11T09:33:40;87.93;;;84.13;;
11396;SDS011;5754;43.726;7.416;2024-01-11T09:36:19;88.07;;;84.37;;
11396;SDS011;5754;43.726;7.416;2024-01-11T09:38:56;86.80;;;83.20;;
11396;SDS011;5754;43.726;7.416;2024-01-11T09:41:33;86.00;;;82.40;;
11396;SDS011;5754;43.726;7.416;2024-01-11T09:44:09;85.87;;;82.27;;
11396;SDS011;5754;43.726;7.416;2024-01-11T09:46:44;86.90;;;83.30;;
11396;SDS011;5754;43.726;7.416;2024-01-11T09:49:21;85.70;;;82.10;;
11396;SDS011;5754;43.726;7.416;2024-01-11T09:51:56;87.30;;;83.70;;
11396;SDS011;5754;43.726;7.416;2024-01-11T09:54:31;84.87;;;81.17;;
11396;SDS011;5754;43.726;7.416;2024-01-11T09:57:05;88.63;;;84.93;;
11396;SDS011;5754;43.726;7.416;2024-01-11T09:59:43;85.37;;;81.70;;
11396;SDS011;5754;43.726;7.416;2024-01-11T10:02:18;86.87;;;82.97;;
11396;SDS011;5754;43.726;7.416;2024-01-11T10:04:56;87.70;;;84.00;;
11396;SDS011;5754;43.726;7.416;2024-01-11T10:07:30;89.13;;;85.27;;
11396;SDS011;5754;43.726;7.416;2024-01-11T10:10:08;85.33;;;81.63;;
11396;SDS011;5754;43.726;7.416;2024-01-11T10:12:44;88.00;;;84.20;;
11396;SDS011;5754;43.726;7.416;2024-01-11T10:15:18;87.93;;;84.20;;
11396;SDS011;5754;43.726;7.416;2024-01-11T10:17:54;87.60;;;83.80;;
11396;SDS011;5754;43.726;7.416;2024-01-11T10:20:31;88.90;;;85.00;;
11396;SDS011;5754;43.726;7.416;2024-01-11T10:23:07;88.50;;;84.77;;
11396;SDS011;5754;43.726;7.416;2024-01-11T10:25:43;88.90;;;85.17;;
11396;SDS011;5754;43.726;7.416;2024-01-11T10:28:18;88.77;;;84.77;;
11396;SDS011;5754;43.726;7.416;2024-01-11T10:30:54;89.33;;;85.43;;
11396;SDS011;5754;43.726;7.416;2024-01-11T10:33:30;87.50;;;83.70;;
11396;SDS011;5754;43.726;7.416;2024-01-11T10:36:05;89.07;;;85.07;;
11396;SDS011;5754;43.726;7.416;2024-01-11T10:38:42;88.23;;;84.30;;
11396;SDS011;5754;43.726;7.416;2024-01-11T10:41:18;89.77;;;85.77;;
11396;SDS011;5754;43.726;7.416;2024-01-11T10:43:55;91.27;;;87.23;;
11396;SDS011;5754;43.726;7.416;2024-01-11T10:46:32;93.10;;;88.97;;
11396;SDS011;5754;43.726;7.416;2024-01-11T10:49:09;91.50;;;87.60;;
11396;SDS011;5754;43.726;7.416;2024-01-11T10:51:47;94.15;;;90.20;;
11396;SDS011;5754;43.726;7.416;2024-01-11T10:54:27;96.45;;;92.30;;
11396;SDS011;5754;43.726;7.416;2024-01-11T10:57:05;95.22;;;91.12;;
11396;SDS011;5754;43.726;7.416;2024-01-11T10:59:42;100.25;;;95.75;;
11396;SDS011;5754;43.726;7.416;2024-01-11T11:02:18;100.15;;;95.93;;
11396;SDS011;5754;43.726;7.416;2024-01-11T11:04:54;100.03;;;95.62;;
11396;SDS011;5754;43.726;7.416;2024-01-11T11:07:31;102.72;;;98.37;;
11396;SDS011;5754;43.726;7.416;2024-01-11T11:10:11;103.55;;;99.05;;
11396;SDS011;5754;43.726;7.416;2024-01-11T11:12:51;104.70;;;100.03;;
11396;SDS011;5754;43.726;7.416;2024-01-11T11:15:28;104.95;;;100.40;;
11396;SDS011;5754;43.726;7.416;2024-01-11T11:18:04;105.43;;;100.80;;
11396;SDS011;5754;43.726;7.416;2024-01-11T11:20:42;105.68;;;101.05;;
11396;SDS011;5754;43.726;7.416;2024-01-11T11:23:18;104.53;;;100.00;;
11396;SDS011;5754;43.726;7.416;2024-01-11T11:25:54;101.82;;;97.43;;
11396;SDS011;5754;43.726;7.416;2024-01-11T11:28:31;102.93;;;98.22;;
11396;SDS011;5754;43.726;7.416;2024-01-11T11:31:08;98.95;;;94.35;;
11396;SDS011;5754;43.726;7.416;2024-01-11T11:33:46;99.53;;;95.00;;
11396;SDS011;5754;43.726;7.416;2024-01-11T11:36:28;97.75;;;93.55;;
11396;SDS011;5754;43.726;7.416;2024-01-11T11:39:02;98.85;;;94.35;;
11396;SDS011;5754;43.726;7.416;2024-01-11T11:41:38;96.10;;;91.90;;
11396;SDS011;5754;43.726;7.416;2024-01-11T11:44:13;95.45;;;91.15;;
11396;SDS011;5754;43.726;7.416;2024-01-11T11:46:48;96.20;;;92.00;;
11396;SDS011;5754;43.726;7.416;2024-01-11T11:49:52;95.00;;;90.80;;
11396;SDS011;5754;43.726;7.416;2024-01-11T11:52:27;96.50;;;91.93;;
11396;SDS011;5754;43.726;7.416;2024-01-11T11:55:05;94.10;;;89.70;;
11396;SDS011;5754;43.726;7.416;2024-01-11T11:57:40;92.27;;;88.00;;
11396;SDS011;5754;43.726;7.416;2024-01-11T12:00:18;96.03;;;91.57;;
11396;SDS011;5754;43.726;7.416;2024-01-11T12:02:54;95.37;;;91.00;;
11396;SDS011;5754;43.726;7.416;2024-01-11T12:05:34;95.13;;;90.83;;
11396;SDS011;5754;43.726;7.416;2024-01-11T12:08:12;93.77;;;89.57;;
11396;SDS011;5754;43.726;7.416;2024-01-11T12:10:49;96.33;;;92.03;;
11396;SDS011;5754;43.726;7.416;2024-01-11T12:13:27;94.67;;;89.97;;
11396;SDS011;5754;43.726;7.416;2024-01-11T12:16:03;95.30;;;90.90;;
11396;SDS011;5754;43.726;7.416;2024-01-11T12:18:39;96.50;;;91.53;;
11396;SDS011;5754;43.726;7.416;2024-01-11T12:21:15;93.57;;;89.53;;
11396;SDS011;5754;43.726;7.416;2024-01-11T12:23:50;93.50;;;89.20;;
11396;SDS011;5754;43.726;7.416;2024-01-11T12:26:26;94.67;;;90.27;;
11396;SDS011;5754;43.726;7.416;2024-01-11T12:29:00;93.60;;;89.00;;
11396;SDS011;5754;43.726;7.416;2024-01-11T12:31:35;91.93;;;87.60;;
11396;SDS011;5754;43.726;7.416;2024-01-11T12:34:11;91.30;;;86.73;;
11396;SDS011;5754;43.726;7.416;2024-01-11T12:36:47;92.90;;;88.37;;
11396;SDS011;5754;43.726;7.416;2024-01-11T12:39:24;90.30;;;86.30;;
11396;SDS011;5754;43.726;7.416;2024-01-11T12:41:59;91.47;;;87.27;;
11396;SDS011;5754;43.726;7.416;2024-01-11T12:44:33;92.97;;;88.77;;
11396;SDS011;5754;43.726;7.416;2024-01-11T12:47:11;92.43;;;87.83;;
11396;SDS011;5754;43.726;7.416;2024-01-11T12:49:47;93.73;;;88.93;;
11396;SDS011;5754;43.726;7.416;2024-01-11T12:52:22;92.23;;;87.80;;
11396;SDS011;5754;43.726;7.416;2024-01-11T12:55:00;90.13;;;85.70;;
11396;SDS011;5754;43.726;7.416;2024-01-11T12:57:40;91.33;;;86.93;;
11396;SDS011;5754;43.726;7.416;2024-01-11T13:00:16;92.77;;;88.33;;
11396;SDS011;5754;43.726;7.416;2024-01-11T13:02:52;93.87;;;89.50;;
11396;SDS011;5754;43.726;7.416;2024-01-11T13:05:30;93.07;;;88.40;;
11396;SDS011;5754;43.726;7.416;2024-01-11T13:08:09;92.43;;;88.17;;
11396;SDS011;5754;43.726;7.416;2024-01-11T13:10:45;92.50;;;87.90;;
11396;SDS011;5754;43.726;7.416;2024-01-11T13:13:21;91.13;;;86.87;;
11396;SDS011;5754;43.726;7.416;2024-01-11T13:15:57;90.87;;;86.90;;
11396;SDS011;5754;43.726;7.416;2024-01-11T13:18:32;90.27;;;86.10;;
11396;SDS011;5754;43.726;7.416;2024-01-11T13:21:07;93.20;;;89.10;;
11396;SDS011;5754;43.726;7.416;2024-01-11T13:23:45;92.30;;;87.90;;
11396;SDS011;5754;43.726;7.416;2024-01-11T13:26:21;92.07;;;88.00;;
11396;SDS011;5754;43.726;7.416;2024-01-11T13:28:55;93.20;;;88.80;;
11396;SDS011;5754;43.726;7.416;2024-01-11T13:31:32;92.57;;;88.40;;
11396;SDS011;5754;43.726;7.416;2024-01-11T13:34:08;91.43;;;87.47;;
11396;SDS011;5754;43.726;7.416;2024-01-11T13:36:43;89.70;;;85.63;;
11396;SDS011;5754;43.726;7.416;2024-01-11T13:39:20;91.73;;;87.60;;
11396;SDS011;5754;43.726;7.416;2024-01-11T13:41:57;91.20;;;86.83;;
11396;SDS011;5754;43.726;7.416;2024-01-11T13:44:33;90.43;;;86.33;;
11396;SDS011;5754;43.726;7.416;2024-01-11T13:47:08;92.07;;;87.90;;
11396;SDS011;5754;43.726;7.416;2024-01-11T13:49:44;93.70;;;89.50;;
11396;SDS011;5754;43.726;7.416;2024-01-11T13:52:19;91.07;;;86.87;;
11396;SDS011;5754;43.726;7.416;2024-01-11T13:54:55;93.90;;;89.50;;
11396;SDS011;5754;43.726;7.416;2024-01-11T13:57:30;90.43;;;86.30;;
11396;SDS011;5754;43.726;7.416;2024-01-11T14:00:17;92.37;;;87.87;;
11396;SDS011;5754;43.726;7.416;2024-01-11T14:02:53;92.73;;;88.47;;
11396;SDS011;5754;43.726;7.416;2024-01-11T14:05:29;86.97;;;82.97;;
11396;SDS011;5754;43.726;7.416;2024-01-11T14:08:04;90.03;;;85.93;;
11396;SDS011;5754;43.726;7.416;2024-01-11T14:10:41;91.37;;;87.27;;
11396;SDS011;5754;43.726;7.416;2024-01-11T14:13:15;89.57;;;85.53;;
11396;SDS011;5754;43.726;7.416;2024-01-11T14:15:51;91.13;;;86.63;;
11396;SDS011;5754;43.726;7.416;2024-01-11T14:18:30;91.80;;;87.80;;
11396;SDS011;5754;43.726;7.416;2024-01-11T14:21:05;94.93;;;90.33;;
11396;SDS011;5754;43.726;7.416;2024-01-11T14:23:40;90.17;;;86.17;;
11396;SDS011;5754;43.726;7.416;2024-01-11T14:26:15;90.07;;;85.50;;
11396;SDS011;5754;43.726;7.416;2024-01-11T14:28:50;87.90;;;83.50;;
11396;SDS011;5754;43.726;7.416;2024-01-11T14:31:28;88.50;;;84.17;;
11396;SDS011;5754;43.726;7.416;2024-01-11T14:34:03;87.43;;;83.07;;
11396;SDS011;5754;43.726;7.416;2024-01-11T14:36:38;89.97;;;85.67;;
11396;SDS011;5754;43.726;7.416;2024-01-11T14:39:14;88.13;;;83.93;;
11396;SDS011;5754;43.726;7.416;2024-01-11T14:41:49;90.03;;;85.80;;
11396;SDS011;5754;43.726;7.416;2024-01-11T14:44:23;88.17;;;84.10;;
11396;SDS011;5754;43.726;7.416;2024-01-11T14:46:59;87.67;;;83.30;;
11396;SDS011;5754;43.726;7.416;2024-01-11T14:49:34;88.43;;;84.00;;
11396;SDS011;5754;43.726;7.416;2024-01-11T14:52:09;91.30;;;86.60;;
11396;SDS011;5754;43.726;7.416;2024-01-11T14:54:44;91.43;;;86.73;;
11396;SDS011;5754;43.726;7.416;2024-01-11T14:57:19;85.83;;;81.70;;
11396;SDS011;5754;43.726;7.416;2024-01-11T14:59:54;86.03;;;81.93;;
11396;SDS011;5754;43.726;7.416;2024-01-11T15:02:31;87.50;;;82.57;;
11396;SDS011;5754;43.726;7.416;2024-01-11T15:05:07;88.43;;;84.43;;
11396;SDS011;5754;43.726;7.416;2024-01-11T15:07:42;88.03;;;84.00;;
11396;SDS011;5754;43.726;7.416;2024-01-11T15:10:17;88.07;;;84.03;;
11396;SDS011;5754;43.726;7.416;2024-01-11T15:12:52;88.73;;;84.50;;
11396;SDS011;5754;43.726;7.416;2024-01-11T15:15:27;86.63;;;82.53;;
11396;SDS011;5754;43.726;7.416;2024-01-11T15:18:04;89.57;;;85.23;;
11396;SDS011;5754;43.726;7.416;2024-01-11T15:20:39;90.83;;;86.53;;
11396;SDS011;5754;43.726;7.416;2024-01-11T15:23:16;88.40;;;84.20;;
11396;SDS011;5754;43.726;7.416;2024-01-11T15:25:51;89.73;;;85.63;;
11396;SDS011;5754;43.726;7.416;2024-01-11T15:28:28;90.70;;;86.60;;